Solonovka, Russia
Current Conditions -  °F | °C
As of 11:30 PM on Monday 20 Oct 2014 (Local Time) from UNOO Reporting Station
Blowing Snow Blowing Snow  
Wind Chill: 24°   Ceiling: 1200
Heat Index: 34°   Visibility: 2.1mi
Dew Point: 32°   Wind: 16mph
Humidity: 93%   Direction: 10°N
Pressure: 29.06"   Gusts: 22mph
Location:  54.58°N, 73.95°E
Report Text: UNOO 201730Z 01007G10MPS 3500 -SHRASN BLSN BKN012 BKN020CB01/00 Q0984 07290150 TEMPO 1500 SHRASN BLSN BKN005 RMK QFE730
Loading
Personal Weather Stations






























Interactive Weather Map
Tropical Storm Tracking
New forecast layout! Learn more

10-Day Weather Forecast

Advertisements
Track Severe Weather on mobile